Time;durP1;ratioP1;P1;durP2;ratioP2;P2;SDS_P1;SDS_P2;PMS_P1;PMS_P2;Temp;Humidity;BMP_temperature;BMP_pressure;BME280_temperature;BME280_humidity;BME280_pressure;Samples;Min_cycle;Max_cycle;Signal;HPM_P1;HPM_P2
2022/09/19 00:01:23;;;;;;;1.80;0.55;;;;;;;;;;5094616;28;20358;-76
2022/09/19 00:03:57;;;;;;;1.33;0.68;;;;;;;;;;5093463;28;20389;-77
2022/09/19 00:06:26;;;;;;;2.25;0.63;;;;;;;;;;5091977;28;20032;-78
2022/09/19 00:08:52;;;;;;;2.03;0.60;;;;;;;;;;5093233;28;20477;-77
2022/09/19 00:11:18;;;;;;;2.00;0.80;;;;;;;;;;5093643;28;20034;-77
2022/09/19 00:13:47;;;;;;;1.95;0.73;;;;;;;;;;5093302;28;20028;-77
2022/09/19 00:16:30;;;;;;;0.82;0.60;;;;;;;;;;5093264;28;20477;-77
2022/09/19 00:18:58;;;;;;;1.52;0.80;;;;;;;;;;5093423;28;20162;-77
2022/09/19 00:21:29;;;;;;;1.70;0.60;;;;;;;;;;5093114;28;20055;-77
2022/09/19 00:26:40;;;;;;;1.85;0.80;;;;;;;;;;5093300;28;20054;-76
2022/09/19 00:29:07;;;;;;;0.60;0.50;;;;;;;;;;5092951;28;20111;-76
2022/09/19 00:31:33;;;;;;;0.88;0.50;;;;;;;;;;5091777;28;20453;-77
2022/09/19 00:34:00;;;;;;;1.38;0.60;;;;;;;;;;5091892;28;20048;-77
2022/09/19 00:36:26;;;;;;;0.75;0.60;;;;;;;;;;5091807;28;20031;-77
2022/09/19 00:38:51;;;;;;;3.15;0.65;;;;;;;;;;5093136;28;20460;-76
2022/09/19 00:41:23;;;;;;;2.65;0.85;;;;;;;;;;5093376;28;20024;-75
2022/09/19 00:43:50;;;;;;;1.20;0.52;;;;;;;;;;5092864;28;20032;-77
2022/09/19 00:46:16;;;;;;;1.25;0.50;;;;;;;;;;5093292;28;20032;-76
2022/09/19 00:48:45;;;;;;;0.75;0.60;;;;;;;;;;5092658;28;20032;-77
2022/09/19 00:51:17;;;;;;;0.65;0.40;;;;;;;;;;5092752;28;20473;-77
2022/09/19 00:53:44;;;;;;;3.28;0.45;;;;;;;;;;5091459;28;20032;-77
2022/09/19 00:56:10;;;;;;;0.90;0.40;;;;;;;;;;5092784;28;20047;-77
2022/09/19 00:58:39;;;;;;;0.98;0.63;;;;;;;;;;5093132;28;20027;-77
2022/09/19 01:01:05;;;;;;;0.80;0.40;;;;;;;;;;5095230;28;20016;-77
2022/09/19 01:03:31;;;;;;;0.70;0.47;;;;;;;;;;5096511;28;20374;-77
2022/09/19 01:06:20;;;;;;;2.22;0.60;;;;;;;;;;5096317;28;20096;-77
2022/09/19 01:09:13;;;;;;;0.90;0.47;;;;;;;;;;5096787;28;20024;-77
2022/09/19 01:12:01;;;;;;;0.75;0.40;;;;;;;;;;5096662;28;20031;-77
2022/09/19 01:14:53;;;;;;;2.08;0.50;;;;;;;;;;5096485;28;20059;-77
2022/09/19 01:17:34;;;;;;;1.48;0.55;;;;;;;;;;5094917;28;20526;-77
2022/09/19 01:20:10;;;;;;;1.77;0.60;;;;;;;;;;5096158;28;20057;-77
2022/09/19 01:23:03;;;;;;;0.65;0.50;;;;;;;;;;5096244;28;20036;-76
2022/09/19 01:25:46;;;;;;;1.02;0.60;;;;;;;;;;5101794;28;20084;-76
2022/09/19 01:28:29;;;;;;;0.43;0.43;;;;;;;;;;5116255;28;20028;-77
2022/09/19 01:31:17;;;;;;;1.77;0.40;;;;;;;;;;5117638;28;20464;-77
2022/09/19 01:33:57;;;;;;;0.57;0.47;;;;;;;;;;5117598;28;20042;-76
2022/09/19 01:36:27;;;;;;;2.63;0.60;;;;;;;;;;5119206;28;20083;-76
2022/09/19 01:38:54;;;;;;;1.02;0.60;;;;;;;;;;5118841;28;20034;-76
2022/09/19 01:41:21;;;;;;;0.93;0.60;;;;;;;;;;5118595;28;20016;-77
2022/09/19 01:43:46;;;;;;;1.60;0.70;;;;;;;;;;5118323;28;20045;-76
2022/09/19 01:46:27;;;;;;;0.65;0.50;;;;;;;;;;5117698;28;20023;-77
2022/09/19 01:49:07;;;;;;;0.82;0.52;;;;;;;;;;5118313;28;20526;-76
2022/09/19 01:51:45;;;;;;;1.40;0.77;;;;;;;;;;5117343;28;20024;-77
2022/09/19 01:54:32;;;;;;;1.00;0.60;;;;;;;;;;5115961;28;20026;-76
2022/09/19 01:57:07;;;;;;;3.20;0.63;;;;;;;;;;5114145;28;20004;-77
2022/09/19 01:59:51;;;;;;;1.92;0.77;;;;;;;;;;5114554;28;20032;-77
2022/09/19 02:02:29;;;;;;;2.95;0.70;;;;;;;;;;5110481;28;20026;-76
2022/09/19 02:05:03;;;;;;;1.88;0.70;;;;;;;;;;5109412;28;20032;-76
2022/09/19 02:07:42;;;;;;;1.48;0.55;;;;;;;;;;5099093;28;20034;-77
2022/09/19 02:10:13;;;;;;;0.90;0.50;;;;;;;;;;5094245;28;20035;-76
2022/09/19 02:12:41;;;;;;;1.15;0.63;;;;;;;;;;5095190;28;20111;-76
2022/09/19 02:15:11;;;;;;;1.10;0.80;;;;;;;;;;5095042;28;20024;-76
2022/09/19 02:17:44;;;;;;;0.88;0.70;;;;;;;;;;5093650;28;20396;-76
2022/09/19 02:20:16;;;;;;;3.20;1.00;;;;;;;;;;5095076;28;20016;-76
2022/09/19 02:22:48;;;;;;;1.90;1.00;;;;;;;;;;5094938;28;20123;-75
2022/09/19 02:25:20;;;;;;;3.72;1.50;;;;;;;;;;5094891;28;20051;-76
2022/09/19 02:28:09;;;;;;;2.45;1.08;;;;;;;;;;5093522;28;20039;-76
2022/09/19 02:30:36;;;;;;;3.20;1.23;;;;;;;;;;5095115;28;20077;-76
2022/09/19 02:33:06;;;;;;;1.80;1.20;;;;;;;;;;5094740;28;20027;-76
2022/09/19 02:35:43;;;;;;;2.20;1.42;;;;;;;;;;5094750;28;20420;-76
2022/09/19 02:38:22;;;;;;;2.25;1.60;;;;;;;;;;5094865;28;20043;-76
2022/09/19 02:41:03;;;;;;;4.15;1.80;;;;;;;;;;5094919;28;20103;-76
2022/09/19 02:43:38;;;;;;;4.72;1.50;;;;;;;;;;5094467;28;20024;-77
2022/09/19 02:46:10;;;;;;;2.90;1.67;;;;;;;;;;5094684;28;20016;-77
2022/09/19 02:48:45;;;;;;;3.70;1.70;;;;;;;;;;5093064;28;20085;-77
2022/09/19 02:51:16;;;;;;;6.43;1.50;;;;;;;;;;5093141;28;20024;-77
2022/09/19 02:53:47;;;;;;;5.63;1.75;;;;;;;;;;5094646;28;20472;-77
2022/09/19 02:56:16;;;;;;;5.53;1.90;;;;;;;;;;5094641;28;20032;-77
2022/09/19 02:58:47;;;;;;;4.53;1.70;;;;;;;;;;5094186;28;20526;-77
2022/09/19 03:01:23;;;;;;;3.75;1.63;;;;;;;;;;5094828;28;20107;-77
2022/09/19 03:06:42;;;;;;;2.15;1.40;;;;;;;;;;5094460;28;20078;-77
2022/09/19 03:09:11;;;;;;;2.63;1.63;;;;;;;;;;5094385;28;20024;-77
2022/09/19 03:11:40;;;;;;;4.70;1.98;;;;;;;;;;5092864;28;20104;-77
2022/09/19 03:14:06;;;;;;;6.18;2.00;;;;;;;;;;5093954;28;20500;-77
2022/09/19 03:16:35;;;;;;;2.65;1.85;;;;;;;;;;5093970;28;20032;-76
2022/09/19 03:19:04;;;;;;;6.00;1.70;;;;;;;;;;5092578;28;20027;-76
2022/09/19 03:21:29;;;;;;;2.85;1.48;;;;;;;;;;5093759;28;20401;-77
2022/09/19 03:23:58;;;;;;;3.58;1.65;;;;;;;;;;5091768;28;20115;-77
2022/09/19 03:26:30;;;;;;;2.63;1.67;;;;;;;;;;5094340;28;20546;-77
2022/09/19 03:28:55;;;;;;;3.60;1.80;;;;;;;;;;5092418;28;20077;-76
2022/09/19 03:31:22;;;;;;;5.03;1.90;;;;;;;;;;5093701;28;20044;-76
2022/09/19 03:33:48;;;;;;;3.90;1.85;;;;;;;;;;5093710;28;20024;-77
2022/09/19 03:36:14;;;;;;;4.47;1.70;;;;;;;;;;5093627;28;20012;-76
2022/09/19 03:38:44;;;;;;;6.05;1.85;;;;;;;;;;5092306;28;20440;-76
2022/09/19 03:41:11;;;;;;;4.38;1.90;;;;;;;;;;5093515;28;20048;-77
2022/09/19 03:43:37;;;;;;;3.85;1.90;;;;;;;;;;5092096;28;20039;-76
2022/09/19 03:46:02;;;;;;;5.13;2.20;;;;;;;;;;5093418;28;20408;-76
2022/09/19 03:48:27;;;;;;;6.65;2.30;;;;;;;;;;5092134;28;20088;-76
2022/09/19 03:50:53;;;;;;;5.05;2.10;;;;;;;;;;5092102;28;20035;-76
2022/09/19 03:53:19;;;;;;;5.13;2.55;;;;;;;;;;5093318;28;20393;-76
2022/09/19 03:55:45;;;;;;;4.28;2.33;;;;;;;;;;5092074;28;20016;-76
2022/09/19 03:58:11;;;;;;;7.55;2.40;;;;;;;;;;5091989;28;20028;-76
2022/09/19 04:00:36;;;;;;;3.45;2.00;;;;;;;;;;5093339;28;20039;-76
2022/09/19 04:03:02;;;;;;;5.85;2.50;;;;;;;;;;5093448;28;20063;-78
2022/09/19 04:05:27;;;;;;;5.00;2.80;;;;;;;;;;5094361;28;20020;-77
2022/09/19 04:07:52;;;;;;;7.20;3.10;;;;;;;;;;5094478;28;20053;-77
2022/09/19 04:10:18;;;;;;;4.50;2.87;;;;;;;;;;5094176;28;20020;-77
2022/09/19 04:12:43;;;;;;;5.93;3.00;;;;;;;;;;5093712;28;20336;-76
2022/09/19 04:15:08;;;;;;;4.27;3.00;;;;;;;;;;5092423;28;20292;-77
2022/09/19 04:17:34;;;;;;;4.50;2.83;;;;;;;;;;5093303;28;20260;-77
2022/09/19 04:19:59;;;;;;;9.35;3.20;;;;;;;;;;5092560;28;20024;-77
2022/09/19 04:22:25;;;;;;;4.07;3.15;;;;;;;;;;5093518;28;20024;-77
2022/09/19 04:24:51;;;;;;;8.70;3.30;;;;;;;;;;5093629;28;20495;-77
2022/09/19 04:27:16;;;;;;;8.55;3.50;;;;;;;;;;5093736;28;20069;-77
2022/09/19 04:29:41;;;;;;;5.38;3.10;;;;;;;;;;5092133;28;20028;-78
2022/09/19 04:32:07;;;;;;;5.83;2.90;;;;;;;;;;5094100;28;20109;-77
2022/09/19 04:34:33;;;;;;;4.72;3.08;;;;;;;;;;5096297;28;20256;-78
2022/09/19 04:36:59;;;;;;;4.63;2.72;;;;;;;;;;5097012;28;20110;-78
2022/09/19 04:39:25;;;;;;;6.75;2.70;;;;;;;;;;5098506;28;20396;-77
2022/09/19 04:41:52;;;;;;;8.23;2.80;;;;;;;;;;5095862;28;20110;-77
2022/09/19 04:44:18;;;;;;;5.10;2.78;;;;;;;;;;5097129;28;20077;-77
2022/09/19 04:46:44;;;;;;;4.72;2.58;;;;;;;;;;5097163;28;20035;-77
2022/09/19 04:49:11;;;;;;;3.80;2.35;;;;;;;;;;5096819;28;20519;-77
2022/09/19 04:51:37;;;;;;;4.47;2.38;;;;;;;;;;5096946;28;20023;-77
2022/09/19 04:54:02;;;;;;;5.88;2.30;;;;;;;;;;5097309;28;20133;-77
2022/09/19 04:56:27;;;;;;;5.38;2.40;;;;;;;;;;5097111;28;20020;-77
2022/09/19 04:58:53;;;;;;;8.27;2.47;;;;;;;;;;5096947;28;20400;-77
2022/09/19 05:01:18;;;;;;;7.35;2.72;;;;;;;;;;5097083;28;20027;-77
2022/09/19 05:03:43;;;;;;;4.20;2.40;;;;;;;;;;5097324;28;20032;-77
2022/09/19 05:06:10;;;;;;;5.60;2.60;;;;;;;;;;5097110;28;20280;-78
2022/09/19 05:08:36;;;;;;;7.45;2.63;;;;;;;;;;5096787;28;20024;-77
2022/09/19 05:11:03;;;;;;;4.72;2.50;;;;;;;;;;5097122;28;20046;-77
2022/09/19 05:13:31;;;;;;;6.30;2.50;;;;;;;;;;5095563;28;20032;-77
2022/09/19 05:16:00;;;;;;;6.47;2.30;;;;;;;;;;5097220;28;20017;-77
2022/09/19 05:18:25;;;;;;;6.13;2.22;;;;;;;;;;5097023;28;20027;-77
2022/09/19 05:20:52;;;;;;;3.67;2.05;;;;;;;;;;5097399;28;20084;-77
2022/09/19 05:23:18;;;;;;;4.18;2.35;;;;;;;;;;5095486;28;20023;-77
2022/09/19 05:25:44;;;;;;;4.50;2.42;;;;;;;;;;5096906;28;20050;-77
2022/09/19 05:28:09;;;;;;;3.92;2.22;;;;;;;;;;5096742;28;20028;-77
2022/09/19 05:30:45;;;;;;;5.90;2.33;;;;;;;;;;5095133;28;20028;-77
2022/09/19 05:33:11;;;;;;;3.08;1.90;;;;;;;;;;5096792;28;20024;-77
2022/09/19 05:35:37;;;;;;;4.68;2.60;;;;;;;;;;5096685;28;20085;-78
2022/09/19 05:38:03;;;;;;;4.80;2.38;;;;;;;;;;5096416;28;20088;-77
2022/09/19 05:40:29;;;;;;;3.30;2.15;;;;;;;;;;5096337;28;20036;-77
2022/09/19 05:42:59;;;;;;;8.40;2.42;;;;;;;;;;5095053;28;20054;-77
2022/09/19 05:45:25;;;;;;;2.88;2.15;;;;;;;;;;5094993;28;20132;-77
2022/09/19 05:47:50;;;;;;;6.18;2.78;;;;;;;;;;5094824;28;20496;-77
2022/09/19 05:50:15;;;;;;;3.10;2.40;;;;;;;;;;5095152;28;20027;-77
2022/09/19 05:55:26;;;;;;;4.90;2.67;;;;;;;;;;5096529;28;20503;-77
2022/09/19 05:57:58;;;;;;;5.00;2.78;;;;;;;;;;5094732;28;20024;-77
2022/09/19 06:00:26;;;;;;;6.78;3.20;;;;;;;;;;5094654;28;20020;-78
2022/09/19 06:03:00;;;;;;;4.82;2.78;;;;;;;;;;5096232;28;20408;-77
2022/09/19 06:05:25;;;;;;;4.82;2.97;;;;;;;;;;5094270;28;20054;-77
2022/09/19 06:07:51;;;;;;;8.07;2.97;;;;;;;;;;5095451;28;20031;-77
2022/09/19 06:10:18;;;;;;;4.50;3.25;;;;;;;;;;5095568;28;20020;-77
2022/09/19 06:12:43;;;;;;;7.47;3.80;;;;;;;;;;5095176;28;20035;-77
2022/09/19 06:15:09;;;;;;;4.82;3.55;;;;;;;;;;5093954;28;20024;-77
2022/09/19 06:17:34;;;;;;;6.35;3.05;;;;;;;;;;5095387;28;20024;-77
2022/09/19 06:20:00;;;;;;;5.20;3.20;;;;;;;;;;5093868;28;20020;-77
2022/09/19 06:22:26;;;;;;;4.88;3.38;;;;;;;;;;5093665;28;20256;-77
2022/09/19 06:24:54;;;;;;;6.43;3.50;;;;;;;;;;5094986;28;20032;-77
2022/09/19 06:27:19;;;;;;;4.63;3.25;;;;;;;;;;5094955;28;20019;-77
2022/09/19 06:29:44;;;;;;;5.03;3.50;;;;;;;;;;5094961;28;20150;-77
2022/09/19 06:32:11;;;;;;;5.43;3.17;;;;;;;;;;5094807;28;20280;-77
2022/09/19 06:34:37;;;;;;;6.55;2.90;;;;;;;;;;5094821;28;20260;-77
2022/09/19 06:37:02;;;;;;;3.95;3.10;;;;;;;;;;5093383;28;20028;-77
2022/09/19 06:39:27;;;;;;;6.85;3.55;;;;;;;;;;5094482;28;20024;-77
2022/09/19 06:41:54;;;;;;;4.80;3.20;;;;;;;;;;5094663;28;20028;-77
2022/09/19 06:44:20;;;;;;;3.95;2.78;;;;;;;;;;5094563;28;20272;-77
2022/09/19 06:46:45;;;;;;;5.60;3.15;;;;;;;;;;5094378;28;20066;-77
2022/09/19 06:49:10;;;;;;;6.53;3.17;;;;;;;;;;5094518;28;20389;-76
2022/09/19 06:51:36;;;;;;;5.25;2.65;;;;;;;;;;5094607;28;20024;-77
2022/09/19 06:54:01;;;;;;;4.55;2.67;;;;;;;;;;5094307;28;20020;-78
2022/09/19 06:56:27;;;;;;;4.22;2.97;;;;;;;;;;5094241;28;20032;-77
2022/09/19 06:58:52;;;;;;;5.35;3.35;;;;;;;;;;5094197;28;20454;-77
2022/09/19 07:01:18;;;;;;;5.18;3.15;;;;;;;;;;5094316;28;20019;-77
2022/09/19 07:03:43;;;;;;;4.23;3.03;;;;;;;;;;5093065;28;20114;-77
2022/09/19 07:06:08;;;;;;;5.82;2.58;;;;;;;;;;5093952;28;20280;-77
2022/09/19 07:08:34;;;;;;;8.38;3.00;;;;;;;;;;5094338;28;20043;-76
2022/09/19 07:10:59;;;;;;;5.00;3.00;;;;;;;;;;5092778;28;20114;-76
2022/09/19 07:13:25;;;;;;;5.90;3.28;;;;;;;;;;5094108;28;20024;-76
2022/09/19 07:15:50;;;;;;;4.68;2.92;;;;;;;;;;5094063;28;20048;-76
2022/09/19 07:18:15;;;;;;;4.57;2.70;;;;;;;;;;5092473;28;20028;-75
2022/09/19 07:20:41;;;;;;;5.25;2.95;;;;;;;;;;5094081;28;20259;-76
2022/09/19 07:23:13;;;;;;;5.47;2.97;;;;;;;;;;5093905;28;20081;-77
2022/09/19 07:25:39;;;;;;;4.10;2.75;;;;;;;;;;5094006;28;20027;-77
2022/09/19 07:28:06;;;;;;;6.97;3.10;;;;;;;;;;5092518;28;20024;-77
2022/09/19 07:30:33;;;;;;;4.30;3.20;;;;;;;;;;5093605;28;20046;-76
2022/09/19 07:33:00;;;;;;;6.30;3.30;;;;;;;;;;5093493;28;20047;-76
2022/09/19 07:35:28;;;;;;;7.28;3.60;;;;;;;;;;5092216;28;20051;-76
2022/09/19 07:37:54;;;;;;;5.57;3.28;;;;;;;;;;5093557;28;20030;-76
2022/09/19 07:40:19;;;;;;;5.43;3.00;;;;;;;;;;5092533;28;20393;-75
2022/09/19 07:42:45;;;;;;;4.50;2.63;;;;;;;;;;5093993;28;20035;-76
2022/09/19 07:45:10;;;;;;;3.60;2.72;;;;;;;;;;5092098;28;20024;-76
2022/09/19 07:47:42;;;;;;;3.70;2.72;;;;;;;;;;5093629;28;20452;-75
2022/09/19 07:50:07;;;;;;;4.43;2.80;;;;;;;;;;5093943;28;20062;-76
2022/09/19 07:52:33;;;;;;;3.55;2.58;;;;;;;;;;5092919;28;20062;-76
2022/09/19 07:54:58;;;;;;;4.73;2.73;;;;;;;;;;5093335;28;20435;-76
2022/09/19 07:57:24;;;;;;;9.13;3.50;;;;;;;;;;5093511;28;20369;-76
2022/09/19 07:59:49;;;;;;;5.78;3.95;;;;;;;;;;5093456;28;20327;-76
2022/09/19 08:02:14;;;;;;;3.90;2.70;;;;;;;;;;5091982;28;20115;-76
2022/09/19 08:04:39;;;;;;;3.97;2.80;;;;;;;;;;5093135;28;20291;-77
2022/09/19 08:07:05;;;;;;;4.70;2.83;;;;;;;;;;5093218;28;20366;-76
2022/09/19 08:09:31;;;;;;;4.63;2.92;;;;;;;;;;5092727;28;20256;-76
2022/09/19 08:11:57;;;;;;;4.23;2.60;;;;;;;;;;5093110;28;20495;-76
2022/09/19 08:14:22;;;;;;;4.68;2.75;;;;;;;;;;5093331;28;20638;-75
2022/09/19 08:16:49;;;;;;;4.88;2.50;;;;;;;;;;5091766;28;20024;-76
2022/09/19 08:19:15;;;;;;;3.92;2.53;;;;;;;;;;5093181;28;20024;-76
2022/09/19 08:21:40;;;;;;;3.60;1.92;;;;;;;;;;5092028;28;20024;-76
2022/09/19 08:24:05;;;;;;;5.57;2.40;;;;;;;;;;5092992;28;20024;-77
2022/09/19 08:26:31;;;;;;;3.80;2.28;;;;;;;;;;5093186;28;20056;-77
2022/09/19 08:28:56;;;;;;;2.27;1.40;;;;;;;;;;5092894;28;20034;-77
2022/09/19 08:31:22;;;;;;;1.40;1.23;;;;;;;;;;5093284;28;20275;-77
2022/09/19 08:33:48;;;;;;;1.90;1.30;;;;;;;;;;5092905;28;20032;-77
2022/09/19 08:36:14;;;;;;;1.73;1.00;;;;;;;;;;5091961;28;20259;-77
2022/09/19 08:38:39;;;;;;;1.73;1.30;;;;;;;;;;5092853;28;20028;-77
2022/09/19 08:41:37;;;;;;;1.70;1.20;;;;;;;;;;5093058;28;20115;-76
2022/09/19 08:44:21;;;;;;;1.80;1.10;;;;;;;;;;5047975;28;20051;-76
2022/09/19 08:47:31;;;;;;;1.83;1.10;;;;;;;;;;5091584;28;20024;-76
2022/09/19 08:50:28;;;;;;;1.85;1.00;;;;;;;;;;5047913;28;20366;-78
2022/09/19 08:52:57;;;;;;;1.23;0.90;;;;;;;;;;5076511;28;20043;-77
2022/09/19 08:55:26;;;;;;;1.48;0.93;;;;;;;;;;5092653;28;20032;-77
2022/09/19 08:58:00;;;;;;;0.80;0.80;;;;;;;;;;5091652;28;20074;-76
2022/09/19 09:00:35;;;;;;;1.67;0.90;;;;;;;;;;5092964;28;20068;-76
2022/09/19 09:03:05;;;;;;;1.90;1.15;;;;;;;;;;5091485;28;20051;-77
2022/09/19 09:05:44;;;;;;;2.22;1.20;;;;;;;;;;5092888;28;20031;-77
2022/09/19 09:08:21;;;;;;;1.20;0.95;;;;;;;;;;5092818;28;20024;-77
2022/09/19 09:10:53;;;;;;;2.05;1.30;;;;;;;;;;5093078;28;20477;-77
2022/09/19 09:13:44;;;;;;;2.15;1.30;;;;;;;;;;5091686;28;20032;-77
2022/09/19 09:16:46;;;;;;;6.95;1.90;;;;;;;;;;5092975;28;20392;-77
2022/09/19 09:19:47;;;;;;;1.52;1.30;;;;;;;;;;5091040;28;20031;-77
2022/09/19 09:22:21;;;;;;;2.20;1.30;;;;;;;;;;5095397;28;20485;-77
2022/09/19 09:24:58;;;;;;;3.55;1.50;;;;;;;;;;5096239;28;20085;-77
2022/09/19 09:27:30;;;;;;;3.13;1.48;;;;;;;;;;5094685;28;20036;-77
2022/09/19 09:30:03;;;;;;;2.35;1.83;;;;;;;;;;5096151;28;20484;-77
2022/09/19 09:32:35;;;;;;;3.42;2.20;;;;;;;;;;5095991;28;20115;-77
2022/09/19 09:35:18;;;;;;;3.15;2.60;;;;;;;;;;5096504;28;20050;-77
2022/09/19 09:37:53;;;;;;;5.10;2.60;;;;;;;;;;5095821;28;20030;-76
2022/09/19 09:43:10;;;;;;;3.75;2.70;;;;;;;;;;5095933;28;20554;-76
2022/09/19 09:45:48;;;;;;;4.75;3.05;;;;;;;;;;5094178;28;20118;-75
2022/09/19 09:48:16;;;;;;;5.50;3.22;;;;;;;;;;5095645;28;20052;-77
2022/09/19 09:51:38;;;;;;;5.05;3.17;;;;;;;;;;5095599;28;20028;-76
2022/09/19 09:57:14;;;;;;;;;;;;;;;;;;5095862;28;20050;-77
2022/09/19 10:03:35;;;;;;;4.82;3.33;;;;;;;;;;5095558;28;20118;-77
2022/09/19 10:06:00;;;;;;;;;;;;;;;;;;5096111;28;20024;-77
2022/09/19 10:08:56;;;;;;;4.50;3.03;;;;;;;;;;5095100;28;19961;-76
2022/09/19 10:11:37;;;;;;;5.18;3.08;;;;;;;;;;5061058;28;20043;-76
2022/09/19 10:14:04;;;;;;;4.80;2.55;;;;;;;;;;5093803;28;20043;-76
2022/09/19 10:16:32;;;;;;;7.18;3.05;;;;;;;;;;5095294;28;20095;-77
2022/09/19 10:19:04;;;;;;;5.95;3.00;;;;;;;;;;5094850;28;20107;-76
2022/09/19 10:21:29;;;;;;;3.30;2.90;;;;;;;;;;5095102;28;20035;-76
2022/09/19 10:23:56;;;;;;;10.02;3.10;;;;;;;;;;5095172;28;20027;-76
2022/09/19 10:26:28;;;;;;;4.35;2.63;;;;;;;;;;5094934;28;20020;-77
2022/09/19 10:28:59;;;;;;;4.53;2.65;;;;;;;;;;5094788;28;20122;-76
2022/09/19 10:31:34;;;;;;;7.90;2.70;;;;;;;;;;5094663;28;20028;-76
2022/09/19 10:34:04;;;;;;;6.63;3.13;;;;;;;;;;5094950;28;20020;-76
2022/09/19 10:36:33;;;;;;;5.18;2.90;;;;;;;;;;5093431;28;20541;-76
2022/09/19 10:39:03;;;;;;;3.90;2.90;;;;;;;;;;5093417;28;20015;-76
2022/09/19 10:41:33;;;;;;;7.38;2.70;;;;;;;;;;5094756;28;20378;-77
2022/09/19 10:44:00;;;;;;;4.00;2.60;;;;;;;;;;5094522;28;20031;-76
2022/09/19 10:46:49;;;;;;;6.10;2.53;;;;;;;;;;5093182;28;20120;-76
2022/09/19 10:49:20;;;;;;;4.28;2.67;;;;;;;;;;5094731;28;20051;-77
2022/09/19 10:51:47;;;;;;;6.18;2.53;;;;;;;;;;5093096;28;20024;-76
2022/09/19 10:54:43;;;;;;;3.42;2.85;;;;;;;;;;5094588;28;20058;-76
2022/09/19 10:57:44;;;;;;;5.32;2.50;;;;;;;;;;5077709;28;20476;-76
2022/09/19 11:00:44;;;;;;;3.72;2.80;;;;;;;;;;5094732;28;20142;-78
2022/09/19 11:03:23;;;;;;;3.95;2.88;;;;;;;;;;5094690;28;20108;-76
2022/09/19 11:06:03;;;;;;;4.30;2.83;;;;;;;;;;5094580;28;20047;-77
2022/09/19 11:08:30;;;;;;;5.13;3.00;;;;;;;;;;5094338;28;20051;-77
2022/09/19 11:10:56;;;;;;;5.30;2.97;;;;;;;;;;5094116;28;20024;-77
2022/09/19 11:13:22;;;;;;;4.95;2.83;;;;;;;;;;5092597;28;20020;-77
2022/09/19 11:16:16;;;;;;;6.10;2.92;;;;;;;;;;5094116;28;20024;-77
2022/09/19 11:19:12;;;;;;;3.72;3.00;;;;;;;;;;5094311;28;20019;-77
2022/09/19 11:21:46;;;;;;;5.32;2.95;;;;;;;;;;5094344;28;20031;-77
2022/09/19 11:24:20;;;;;;;;;;;;;;;;;;5093107;28;20020;-76
2022/09/19 11:27:17;;;;;;;4.40;2.65;;;;;;;;;;5093034;28;19912;-77
2022/09/19 11:30:11;;;;;;;5.65;2.75;;;;;;;;;;5094452;28;20388;-76
2022/09/19 11:33:02;;;;;;;3.50;2.40;;;;;;;;;;5094062;28;20023;-77
2022/09/19 11:35:44;;;;;;;3.58;2.70;;;;;;;;;;5056469;28;20028;-78
2022/09/19 11:38:34;;;;;;;2.90;2.25;;;;;;;;;;5092602;28;20484;-77
2022/09/19 11:41:32;;;;;;;4.53;2.47;;;;;;;;;;5092590;28;20024;-77
2022/09/19 11:44:30;;;;;;;2.50;2.22;;;;;;;;;;5092746;28;20035;-77
2022/09/19 11:47:31;;;;;;;3.60;2.50;;;;;;;;;;5092498;28;20024;-77
2022/09/19 11:50:10;;;;;;;3.45;2.28;;;;;;;;;;5091930;28;20089;-76
2022/09/19 11:53:15;;;;;;;3.13;2.00;;;;;;;;;;5094479;28;20465;-77
2022/09/19 11:55:56;;;;;;;3.20;1.90;;;;;;;;;;5093901;28;20028;-77
2022/09/19 11:58:51;;;;;;;3.45;2.03;;;;;;;;;;5091923;28;20028;-78
2022/09/19 12:01:35;;;;;;;6.43;1.90;;;;;;;;;;5092577;28;20022;-78
2022/09/19 12:04:32;;;;;;;2.47;1.92;;;;;;;;;;5092574;28;20024;-77
2022/09/19 12:07:19;;;;;;;3.92;1.67;;;;;;;;;;5092360;28;20020;-76
2022/09/19 12:09:51;;;;;;;1.67;1.55;;;;;;;;;;5093645;28;20388;-78
2022/09/19 12:12:20;;;;;;;2.58;1.50;;;;;;;;;;5094331;28;20027;-77
2022/09/19 12:14:55;;;;;;;3.28;1.50;;;;;;;;;;5092128;28;20020;-78
2022/09/19 12:17:28;;;;;;;3.08;1.20;;;;;;;;;;5093799;28;20056;-77
2022/09/19 12:20:04;;;;;;;1.83;1.10;;;;;;;;;;5093371;28;20024;-78
2022/09/19 12:22:31;;;;;;;1.92;1.20;;;;;;;;;;5093287;28;20552;-75
2022/09/19 12:25:18;;;;;;;4.45;1.20;;;;;;;;;;5093468;28;20107;-78
2022/09/19 12:27:52;;;;;;;2.95;1.25;;;;;;;;;;5093177;28;20059;-77
2022/09/19 12:30:20;;;;;;;3.75;1.17;;;;;;;;;;5091857;28;20473;-77
2022/09/19 12:32:49;;;;;;;2.35;1.23;;;;;;;;;;5094218;28;20052;-77
2022/09/19 12:35:21;;;;;;;1.73;1.27;;;;;;;;;;5094153;28;20102;-78
2022/09/19 12:38:17;;;;;;;3.55;1.40;;;;;;;;;;5094409;28;20036;-77
2022/09/19 12:40:52;;;;;;;1.27;1.00;;;;;;;;;;5093631;28;20016;-76
2022/09/19 12:43:41;;;;;;;2.55;1.15;;;;;;;;;;5093167;28;20036;-77
2022/09/19 12:46:40;;;;;;;1.95;1.00;;;;;;;;;;5092883;28;20537;-77
2022/09/19 12:49:28;;;;;;;1.08;0.85;;;;;;;;;;5092889;28;20032;-77
2022/09/19 12:52:07;;;;;;;4.00;1.10;;;;;;;;;;5093015;28;20103;-77
2022/09/19 12:54:43;;;;;;;2.47;1.17;;;;;;;;;;5094008;28;20113;-76
2022/09/19 12:57:16;;;;;;;1.42;0.90;;;;;;;;;;5096773;28;20042;-77
2022/09/19 12:59:47;;;;;;;1.88;1.05;;;;;;;;;;5096745;28;20095;-76
2022/09/19 13:02:21;;;;;;;2.53;1.20;;;;;;;;;;5095572;28;20453;-76
2022/09/19 13:04:59;;;;;;;1.75;1.10;;;;;;;;;;5096852;28;20052;-77
2022/09/19 13:07:37;;;;;;;1.10;1.00;;;;;;;;;;5096824;28;20507;-76
2022/09/19 13:10:24;;;;;;;1.02;0.88;;;;;;;;;;5096798;28;20035;-77
2022/09/19 13:12:51;;;;;;;1.60;0.98;;;;;;;;;;5096744;28;20020;-76
2022/09/19 13:15:24;;;;;;;1.67;0.80;;;;;;;;;;5096919;28;20028;-77
2022/09/19 13:23:32;;;;;;;1.42;0.90;;;;;;;;;;5096424;28;20042;-76
2022/09/19 13:26:17;;;;;;;1.98;1.00;;;;;;;;;;5094043;28;20093;-76
2022/09/19 13:28:50;;;;;;;;;;;;;;;;;;5095538;28;20026;-77
2022/09/19 13:31:19;;;;;;;4.70;1.00;;;;;;;;;;5096678;28;19977;-77
2022/09/19 13:33:53;;;;;;;1.60;0.93;;;;;;;;;;5095374;28;20081;-77
2022/09/19 13:36:22;;;;;;;1.23;0.90;;;;;;;;;;5095259;28;20024;-78
2022/09/19 13:38:50;;;;;;;1.15;0.80;;;;;;;;;;5096499;28;20111;-75
2022/09/19 13:41:29;;;;;;;1.67;1.00;;;;;;;;;;5096327;28;20023;-77
2022/09/19 13:44:24;;;;;;;3.05;0.82;;;;;;;;;;5095969;28;20031;-77
2022/09/19 13:47:21;;;;;;;1.00;0.90;;;;;;;;;;5094525;28;20028;-77
2022/09/19 13:50:04;;;;;;;2.13;0.98;;;;;;;;;;5094298;28;20028;-77
2022/09/19 13:52:42;;;;;;;2.05;0.90;;;;;;;;;;5095829;28;20023;-77
2022/09/19 13:55:13;;;;;;;2.28;0.80;;;;;;;;;;5096097;28;20024;-77
2022/09/19 13:57:43;;;;;;;2.28;0.80;;;;;;;;;;5095436;28;20435;-77
2022/09/19 14:00:29;;;;;;;1.98;0.90;;;;;;;;;;5096024;28;20481;-77
2022/09/19 14:03:03;;;;;;;1.45;1.00;;;;;;;;;;5096186;28;20480;-77
2022/09/19 14:05:34;;;;;;;1.88;0.93;;;;;;;;;;5096268;28;20066;-77
2022/09/19 14:08:01;;;;;;;1.83;1.10;;;;;;;;;;5094978;28;20444;-77
2022/09/19 14:10:39;;;;;;;1.80;1.17;;;;;;;;;;5094162;28;20129;-77
2022/09/19 14:13:27;;;;;;;1.75;1.20;;;;;;;;;;5095336;28;20020;-76
2022/09/19 14:16:06;;;;;;;8.90;1.38;;;;;;;;;;5094205;28;20020;-77
2022/09/19 14:18:46;;;;;;;2.75;1.20;;;;;;;;;;5095221;28;20055;-76
2022/09/19 14:21:40;;;;;;;1.95;0.90;;;;;;;;;;5094766;28;20111;-78
2022/09/19 14:24:17;;;;;;;1.37;1.00;;;;;;;;;;5057027;28;20036;-77
2022/09/19 14:27:04;;;;;;;2.00;1.00;;;;;;;;;;5093549;28;20439;-76
2022/09/19 14:29:36;;;;;;;3.42;0.75;;;;;;;;;;5093756;28;20028;-78
2022/09/19 14:32:30;;;;;;;2.83;0.73;;;;;;;;;;5095206;28;20524;-77
2022/09/19 14:35:15;;;;;;;1.23;0.50;;;;;;;;;;5094881;28;20472;-77
2022/09/19 14:37:56;;;;;;;1.67;0.60;;;;;;;;;;5094646;28;20028;-77
2022/09/19 14:40:40;;;;;;;0.47;0.40;;;;;;;;;;5093695;28;20024;-77
2022/09/19 14:43:48;;;;;;;2.95;0.50;;;;;;;;;;5093646;28;20508;-78
2022/09/19 14:46:35;;;;;;;1.75;0.50;;;;;;;;;;5094391;28;20050;-77
2022/09/19 14:49:28;;;;;;;3.72;0.70;;;;;;;;;;5094390;28;20027;-77
2022/09/19 14:52:00;;;;;;;1.02;0.50;;;;;;;;;;5094297;28;20020;-77
2022/09/19 14:54:37;;;;;;;1.58;0.60;;;;;;;;;;5094648;28;20020;-77
2022/09/19 14:57:05;;;;;;;0.40;0.40;;;;;;;;;;5093121;28;20012;-77
2022/09/19 14:59:34;;;;;;;1.17;0.50;;;;;;;;;;5094364;28;20020;-77
2022/09/19 15:02:41;;;;;;;3.45;0.55;;;;;;;;;;5093182;28;20485;-77
2022/09/19 15:05:24;;;;;;;0.40;0.40;;;;;;;;;;5077137;28;20036;-77
2022/09/19 15:07:50;;;;;;;1.35;0.52;;;;;;;;;;5094214;28;20477;-75
2022/09/19 15:10:37;;;;;;;1.70;0.77;;;;;;;;;;5092774;28;20035;-76
2022/09/19 15:13:15;;;;;;;1.00;0.68;;;;;;;;;;5094125;28;20024;-76
2022/09/19 15:15:45;;;;;;;3.10;0.70;;;;;;;;;;5094303;28;20030;-77
2022/09/19 15:18:21;;;;;;;5.15;0.55;;;;;;;;;;5094482;28;20046;-77
2022/09/19 15:20:53;;;;;;;1.58;0.65;;;;;;;;;;5092667;28;20051;-77
2022/09/19 15:23:20;;;;;;;1.40;0.73;;;;;;;;;;5094384;28;20101;-78
2022/09/19 15:25:47;;;;;;;0.82;0.65;;;;;;;;;;5093997;28;20035;-76
2022/09/19 15:28:35;;;;;;;1.83;0.80;;;;;;;;;;5093769;28;20110;-77
2022/09/19 15:31:00;;;;;;;1.45;0.82;;;;;;;;;;5094236;28;20020;-76
2022/09/19 15:33:28;;;;;;;1.02;0.60;;;;;;;;;;5093668;28;20028;-76
2022/09/19 15:35:58;;;;;;;2.25;0.80;;;;;;;;;;5093612;28;20027;-77
2022/09/19 15:38:31;;;;;;;1.75;0.70;;;;;;;;;;5092209;28;20508;-77
2022/09/19 15:40:59;;;;;;;4.18;0.93;;;;;;;;;;5093628;28;20042;-76
2022/09/19 15:43:26;;;;;;;3.88;0.90;;;;;;;;;;5091994;28;20032;-76